Terminal Aerodrome Forecast
Issued by NWS

Home | Current Version | Previous Version | Text Only | Print | Product List | Glossary On
Versions: 1 2 3 4 5 6 7 8 9 10 11 12 13 14 15 16 17 18 19 20 21 22
000
FTUS43 KGRB 100520
TAFMTW
TAF
KMTW 100520Z 1006/1106 26007KT P6SM SCT100
     FM100800 26007KT P6SM -SHSN BKN050 BKN080
     FM101200 30008KT P6SM BKN040
     FM110300 31005KT P6SM SCT090=

USA.gov is the U.S. government's official web portal to all federal, state and local government web resources and services.